sensor_id;sensor_type;location;lat;lon;timestamp;P1;durP1;ratioP1;P2;durP2;ratioP2
26702;SDS011;14316;51.074;3.704;2022-09-09T00:00:32;7.03;;;2.50;;
26702;SDS011;14316;51.074;3.704;2022-09-09T00:03:03;6.10;;;2.35;;
26702;SDS011;14316;51.074;3.704;2022-09-09T00:08:12;6.43;;;2.70;;
26702;SDS011;14316;51.074;3.704;2022-09-09T00:10:59;5.75;;;2.60;;
26702;SDS011;14316;51.074;3.704;2022-09-09T00:13:48;5.90;;;2.25;;
26702;SDS011;14316;51.074;3.704;2022-09-09T00:19:02;5.07;;;2.50;;
26702;SDS011;14316;51.074;3.704;2022-09-09T00:21:39;5.13;;;2.20;;
26702;SDS011;14316;51.074;3.704;2022-09-09T00:25:01;5.95;;;2.40;;
26702;SDS011;14316;51.074;3.704;2022-09-09T00:27:11;5.95;;;2.60;;
26702;SDS011;14316;51.074;3.704;2022-09-09T00:29:44;3.85;;;2.20;;
26702;SDS011;14316;51.074;3.704;2022-09-09T00:32:22;5.40;;;2.58;;
26702;SDS011;14316;51.074;3.704;2022-09-09T00:35:01;4.20;;;2.30;;
26702;SDS011;14316;51.074;3.704;2022-09-09T00:38:09;4.57;;;2.42;;
26702;SDS011;14316;51.074;3.704;2022-09-09T00:40:54;6.80;;;2.70;;
26702;SDS011;14316;51.074;3.704;2022-09-09T00:43:32;4.03;;;2.25;;
26702;SDS011;14316;51.074;3.704;2022-09-09T00:48:31;6.22;;;2.60;;
26702;SDS011;14316;51.074;3.704;2022-09-09T00:51:22;4.88;;;2.45;;
26702;SDS011;14316;51.074;3.704;2022-09-09T00:56:47;5.30;;;2.42;;
26702;SDS011;14316;51.074;3.704;2022-09-09T01:01:49;6.03;;;2.45;;
26702;SDS011;14316;51.074;3.704;2022-09-09T01:04:19;8.02;;;2.63;;
26702;SDS011;14316;51.074;3.704;2022-09-09T01:07:00;3.72;;;2.30;;
26702;SDS011;14316;51.074;3.704;2022-09-09T01:09:51;4.88;;;2.60;;
26702;SDS011;14316;51.074;3.704;2022-09-09T01:12:25;5.60;;;2.25;;
26702;SDS011;14316;51.074;3.704;2022-09-09T01:14:53;6.47;;;2.30;;
26702;SDS011;14316;51.074;3.704;2022-09-09T01:17:36;5.95;;;2.03;;
26702;SDS011;14316;51.074;3.704;2022-09-09T01:22:44;7.60;;;2.30;;
26702;SDS011;14316;51.074;3.704;2022-09-09T01:28:29;5.93;;;1.98;;
26702;SDS011;14316;51.074;3.704;2022-09-09T01:30:57;4.03;;;2.20;;
26702;SDS011;14316;51.074;3.704;2022-09-09T01:33:27;4.88;;;2.10;;
26702;SDS011;14316;51.074;3.704;2022-09-09T01:36:00;5.40;;;2.33;;
26702;SDS011;14316;51.074;3.704;2022-09-09T01:38:40;5.25;;;2.10;;
26702;SDS011;14316;51.074;3.704;2022-09-09T01:41:08;7.05;;;2.28;;
26702;SDS011;14316;51.074;3.704;2022-09-09T01:43:34;4.25;;;2.10;;
26702;SDS011;14316;51.074;3.704;2022-09-09T01:46:00;5.88;;;2.10;;
26702;SDS011;14316;51.074;3.704;2022-09-09T01:48:27;5.85;;;1.92;;
26702;SDS011;14316;51.074;3.704;2022-09-09T01:50:54;6.15;;;2.17;;
26702;SDS011;14316;51.074;3.704;2022-09-09T01:53:20;5.78;;;2.33;;
26702;SDS011;14316;51.074;3.704;2022-09-09T02:06:43;8.97;;;2.30;;
26702;SDS011;14316;51.074;3.704;2022-09-09T02:09:13;8.38;;;2.20;;
26702;SDS011;14316;51.074;3.704;2022-09-09T02:11:40;5.88;;;2.40;;
26702;SDS011;14316;51.074;3.704;2022-09-09T02:14:12;5.10;;;1.95;;
26702;SDS011;14316;51.074;3.704;2022-09-09T02:16:48;5.85;;;2.20;;
26702;SDS011;14316;51.074;3.704;2022-09-09T02:19:23;5.75;;;2.05;;
26702;SDS011;14316;51.074;3.704;2022-09-09T02:21:56;5.53;;;2.42;;
26702;SDS011;14316;51.074;3.704;2022-09-09T02:24:33;6.10;;;2.45;;
26702;SDS011;14316;51.074;3.704;2022-09-09T02:27:02;8.15;;;2.45;;
26702;SDS011;14316;51.074;3.704;2022-09-09T02:29:39;6.65;;;2.17;;
26702;SDS011;14316;51.074;3.704;2022-09-09T02:32:07;8.00;;;2.85;;
26702;SDS011;14316;51.074;3.704;2022-09-09T02:34:41;7.03;;;2.50;;
26702;SDS011;14316;51.074;3.704;2022-09-09T02:37:17;8.23;;;2.78;;
26702;SDS011;14316;51.074;3.704;2022-09-09T02:39:46;8.82;;;2.28;;
26702;SDS011;14316;51.074;3.704;2022-09-09T02:42:12;8.05;;;2.40;;
26702;SDS011;14316;51.074;3.704;2022-09-09T02:44:39;9.13;;;2.30;;
26702;SDS011;14316;51.074;3.704;2022-09-09T02:52:32;8.07;;;2.40;;
26702;SDS011;14316;51.074;3.704;2022-09-09T02:55:46;5.88;;;2.33;;
26702;SDS011;14316;51.074;3.704;2022-09-09T02:58:16;7.68;;;2.58;;
26702;SDS011;14316;51.074;3.704;2022-09-09T03:00:45;7.65;;;2.70;;
26702;SDS011;14316;51.074;3.704;2022-09-09T03:03:12;9.48;;;3.38;;
26702;SDS011;14316;51.074;3.704;2022-09-09T03:05:38;9.88;;;2.67;;
26702;SDS011;14316;51.074;3.704;2022-09-09T03:08:04;13.38;;;2.80;;
26702;SDS011;14316;51.074;3.704;2022-09-09T03:10:39;10.18;;;2.38;;
26702;SDS011;14316;51.074;3.704;2022-09-09T03:13:14;8.60;;;3.05;;
26702;SDS011;14316;51.074;3.704;2022-09-09T03:15:40;11.00;;;3.20;;
26702;SDS011;14316;51.074;3.704;2022-09-09T03:18:07;12.57;;;3.33;;
26702;SDS011;14316;51.074;3.704;2022-09-09T03:20:39;10.95;;;2.92;;
26702;SDS011;14316;51.074;3.704;2022-09-09T03:23:06;7.82;;;3.05;;
26702;SDS011;14316;51.074;3.704;2022-09-09T03:25:33;11.43;;;2.88;;
26702;SDS011;14316;51.074;3.704;2022-09-09T03:27:58;8.68;;;3.03;;
26702;SDS011;14316;51.074;3.704;2022-09-09T03:30:26;8.68;;;3.00;;
26702;SDS011;14316;51.074;3.704;2022-09-09T03:32:52;11.68;;;3.25;;
26702;SDS011;14316;51.074;3.704;2022-09-09T03:35:20;10.23;;;3.17;;
26702;SDS011;14316;51.074;3.704;2022-09-09T03:37:46;10.48;;;3.42;;
26702;SDS011;14316;51.074;3.704;2022-09-09T03:40:12;9.35;;;3.33;;
26702;SDS011;14316;51.074;3.704;2022-09-09T03:42:38;12.38;;;3.42;;
26702;SDS011;14316;51.074;3.704;2022-09-09T03:45:05;10.65;;;3.28;;
26702;SDS011;14316;51.074;3.704;2022-09-09T03:47:32;8.23;;;3.10;;
26702;SDS011;14316;51.074;3.704;2022-09-09T03:49:58;12.57;;;3.17;;
26702;SDS011;14316;51.074;3.704;2022-09-09T03:52:24;10.88;;;3.25;;
26702;SDS011;14316;51.074;3.704;2022-09-09T03:54:51;10.25;;;2.95;;
26702;SDS011;14316;51.074;3.704;2022-09-09T03:57:18;10.35;;;2.95;;
26702;SDS011;14316;51.074;3.704;2022-09-09T03:59:44;11.38;;;2.95;;
26702;SDS011;14316;51.074;3.704;2022-09-09T04:02:10;11.50;;;3.30;;
26702;SDS011;14316;51.074;3.704;2022-09-09T04:04:36;13.25;;;3.40;;
26702;SDS011;14316;51.074;3.704;2022-09-09T04:07:02;10.65;;;3.65;;
26702;SDS011;14316;51.074;3.704;2022-09-09T04:09:27;12.25;;;3.03;;
26702;SDS011;14316;51.074;3.704;2022-09-09T04:11:53;13.25;;;3.08;;
26702;SDS011;14316;51.074;3.704;2022-09-09T04:14:20;10.15;;;3.05;;
26702;SDS011;14316;51.074;3.704;2022-09-09T04:16:46;10.23;;;3.13;;
26702;SDS011;14316;51.074;3.704;2022-09-09T04:19:15;10.63;;;3.38;;
26702;SDS011;14316;51.074;3.704;2022-09-09T04:21:50;14.40;;;3.50;;
26702;SDS011;14316;51.074;3.704;2022-09-09T04:24:16;14.95;;;3.97;;
26702;SDS011;14316;51.074;3.704;2022-09-09T04:26:46;9.95;;;3.63;;
26702;SDS011;14316;51.074;3.704;2022-09-09T04:29:24;10.93;;;3.05;;
26702;SDS011;14316;51.074;3.704;2022-09-09T04:32:22;10.40;;;3.15;;
26702;SDS011;14316;51.074;3.704;2022-09-09T04:34:48;9.05;;;3.15;;
26702;SDS011;14316;51.074;3.704;2022-09-09T04:37:14;10.32;;;3.20;;
26702;SDS011;14316;51.074;3.704;2022-09-09T04:39:40;11.00;;;3.30;;
26702;SDS011;14316;51.074;3.704;2022-09-09T04:42:05;15.35;;;3.40;;
26702;SDS011;14316;51.074;3.704;2022-09-09T04:44:34;14.23;;;3.67;;
26702;SDS011;14316;51.074;3.704;2022-09-09T04:47:00;8.73;;;3.35;;
26702;SDS011;14316;51.074;3.704;2022-09-09T04:49:25;12.27;;;3.38;;
26702;SDS011;14316;51.074;3.704;2022-09-09T04:51:51;10.75;;;2.85;;
26702;SDS011;14316;51.074;3.704;2022-09-09T04:54:17;13.70;;;3.45;;
26702;SDS011;14316;51.074;3.704;2022-09-09T04:56:44;12.13;;;3.22;;
26702;SDS011;14316;51.074;3.704;2022-09-09T04:59:09;9.07;;;3.40;;
26702;SDS011;14316;51.074;3.704;2022-09-09T05:01:35;19.13;;;3.78;;
26702;SDS011;14316;51.074;3.704;2022-09-09T05:04:01;11.77;;;3.83;;
26702;SDS011;14316;51.074;3.704;2022-09-09T05:06:28;10.55;;;3.63;;
26702;SDS011;14316;51.074;3.704;2022-09-09T05:08:56;9.85;;;3.45;;
26702;SDS011;14316;51.074;3.704;2022-09-09T05:11:23;11.43;;;3.65;;
26702;SDS011;14316;51.074;3.704;2022-09-09T05:13:54;12.07;;;3.58;;
26702;SDS011;14316;51.074;3.704;2022-09-09T05:16:22;10.45;;;4.22;;
26702;SDS011;14316;51.074;3.704;2022-09-09T05:18:48;13.70;;;3.97;;
26702;SDS011;14316;51.074;3.704;2022-09-09T05:21:16;11.25;;;3.85;;
26702;SDS011;14316;51.074;3.704;2022-09-09T05:23:44;14.30;;;4.47;;
26702;SDS011;14316;51.074;3.704;2022-09-09T05:26:14;13.68;;;4.97;;
26702;SDS011;14316;51.074;3.704;2022-09-09T05:28:42;15.05;;;4.63;;
26702;SDS011;14316;51.074;3.704;2022-09-09T05:31:09;20.45;;;5.78;;
26702;SDS011;14316;51.074;3.704;2022-09-09T05:33:39;12.18;;;5.40;;
26702;SDS011;14316;51.074;3.704;2022-09-09T05:36:15;18.60;;;5.38;;
26702;SDS011;14316;51.074;3.704;2022-09-09T05:38:43;12.98;;;5.20;;
26702;SDS011;14316;51.074;3.704;2022-09-09T05:41:19;14.82;;;5.13;;
26702;SDS011;14316;51.074;3.704;2022-09-09T05:43:45;15.73;;;5.38;;
26702;SDS011;14316;51.074;3.704;2022-09-09T05:46:16;14.10;;;5.28;;
26702;SDS011;14316;51.074;3.704;2022-09-09T05:48:44;12.95;;;5.50;;
26702;SDS011;14316;51.074;3.704;2022-09-09T05:51:12;16.42;;;5.50;;
26702;SDS011;14316;51.074;3.704;2022-09-09T05:53:42;19.50;;;5.47;;
26702;SDS011;14316;51.074;3.704;2022-09-09T05:56:30;16.70;;;5.72;;
26702;SDS011;14316;51.074;3.704;2022-09-09T05:58:56;16.25;;;5.47;;
26702;SDS011;14316;51.074;3.704;2022-09-09T06:01:23;12.43;;;4.57;;
26702;SDS011;14316;51.074;3.704;2022-09-09T06:03:51;17.05;;;5.93;;
26702;SDS011;14316;51.074;3.704;2022-09-09T06:06:21;14.75;;;5.47;;
26702;SDS011;14316;51.074;3.704;2022-09-09T06:08:52;18.77;;;5.47;;
26702;SDS011;14316;51.074;3.704;2022-09-09T06:11:25;19.52;;;6.15;;
26702;SDS011;14316;51.074;3.704;2022-09-09T06:13:56;21.25;;;5.70;;
26702;SDS011;14316;51.074;3.704;2022-09-09T06:16:22;21.15;;;5.85;;
26702;SDS011;14316;51.074;3.704;2022-09-09T06:18:50;17.10;;;6.10;;
26702;SDS011;14316;51.074;3.704;2022-09-09T06:21:23;16.65;;;6.22;;
26702;SDS011;14316;51.074;3.704;2022-09-09T06:24:01;17.00;;;4.45;;
26702;SDS011;14316;51.074;3.704;2022-09-09T06:26:30;19.27;;;7.15;;
26702;SDS011;14316;51.074;3.704;2022-09-09T06:29:01;22.67;;;7.65;;
26702;SDS011;14316;51.074;3.704;2022-09-09T06:31:31;21.88;;;7.40;;
26702;SDS011;14316;51.074;3.704;2022-09-09T06:33:59;21.13;;;6.82;;
26702;SDS011;14316;51.074;3.704;2022-09-09T06:36:33;19.42;;;6.68;;
26702;SDS011;14316;51.074;3.704;2022-09-09T06:39:00;14.48;;;6.13;;
26702;SDS011;14316;51.074;3.704;2022-09-09T06:41:27;16.33;;;6.20;;
26702;SDS011;14316;51.074;3.704;2022-09-09T06:43:54;19.52;;;6.57;;
26702;SDS011;14316;51.074;3.704;2022-09-09T06:46:24;21.25;;;6.22;;
26702;SDS011;14316;51.074;3.704;2022-09-09T06:48:52;19.30;;;6.30;;
26702;SDS011;14316;51.074;3.704;2022-09-09T06:51:24;21.85;;;6.20;;
26702;SDS011;14316;51.074;3.704;2022-09-09T06:53:56;13.97;;;5.63;;
26702;SDS011;14316;51.074;3.704;2022-09-09T06:56:24;15.10;;;5.80;;
26702;SDS011;14316;51.074;3.704;2022-09-09T06:58:52;14.30;;;5.30;;
26702;SDS011;14316;51.074;3.704;2022-09-09T07:01:20;14.43;;;5.22;;
26702;SDS011;14316;51.074;3.704;2022-09-09T07:03:49;11.70;;;4.57;;
26702;SDS011;14316;51.074;3.704;2022-09-09T07:06:26;16.10;;;5.27;;
26702;SDS011;14316;51.074;3.704;2022-09-09T07:08:54;14.30;;;4.68;;
26702;SDS011;14316;51.074;3.704;2022-09-09T07:11:23;9.95;;;3.95;;
26702;SDS011;14316;51.074;3.704;2022-09-09T07:13:52;14.95;;;4.68;;
26702;SDS011;14316;51.074;3.704;2022-09-09T07:16:19;12.30;;;4.20;;
26702;SDS011;14316;51.074;3.704;2022-09-09T07:18:46;11.25;;;4.45;;
26702;SDS011;14316;51.074;3.704;2022-09-09T07:21:13;15.63;;;4.38;;
26702;SDS011;14316;51.074;3.704;2022-09-09T07:23:39;11.23;;;4.10;;
26702;SDS011;14316;51.074;3.704;2022-09-09T07:26:10;12.50;;;4.22;;
26702;SDS011;14316;51.074;3.704;2022-09-09T07:28:38;9.15;;;4.07;;
26702;SDS011;14316;51.074;3.704;2022-09-09T07:31:05;9.25;;;3.65;;
26702;SDS011;14316;51.074;3.704;2022-09-09T07:33:32;10.10;;;3.72;;
26702;SDS011;14316;51.074;3.704;2022-09-09T07:36:07;15.50;;;3.78;;
26702;SDS011;14316;51.074;3.704;2022-09-09T07:38:42;15.32;;;3.75;;
26702;SDS011;14316;51.074;3.704;2022-09-09T07:41:11;10.38;;;3.60;;
26702;SDS011;14316;51.074;3.704;2022-09-09T07:43:39;12.23;;;3.70;;
26702;SDS011;14316;51.074;3.704;2022-09-09T07:46:07;12.95;;;3.60;;
26702;SDS011;14316;51.074;3.704;2022-09-09T07:48:33;9.85;;;3.28;;
26702;SDS011;14316;51.074;3.704;2022-09-09T07:51:04;12.77;;;3.40;;
26702;SDS011;14316;51.074;3.704;2022-09-09T07:53:36;8.45;;;3.50;;
26702;SDS011;14316;51.074;3.704;2022-09-09T07:56:06;8.52;;;3.35;;
26702;SDS011;14316;51.074;3.704;2022-09-09T07:58:35;11.05;;;3.30;;
26702;SDS011;14316;51.074;3.704;2022-09-09T08:01:06;13.30;;;3.72;;
26702;SDS011;14316;51.074;3.704;2022-09-09T08:03:32;8.23;;;3.17;;
26702;SDS011;14316;51.074;3.704;2022-09-09T08:06:02;9.20;;;3.72;;
26702;SDS011;14316;51.074;3.704;2022-09-09T08:08:29;10.07;;;3.47;;
26702;SDS011;14316;51.074;3.704;2022-09-09T08:11:03;9.20;;;3.30;;
26702;SDS011;14316;51.074;3.704;2022-09-09T08:13:34;7.43;;;3.17;;
26702;SDS011;14316;51.074;3.704;2022-09-09T08:16:05;9.60;;;3.40;;
26702;SDS011;14316;51.074;3.704;2022-09-09T08:18:33;8.43;;;2.97;;
26702;SDS011;14316;51.074;3.704;2022-09-09T08:21:05;11.20;;;3.55;;
26702;SDS011;14316;51.074;3.704;2022-09-09T08:23:33;10.52;;;3.47;;
26702;SDS011;14316;51.074;3.704;2022-09-09T08:26:03;10.30;;;3.47;;
26702;SDS011;14316;51.074;3.704;2022-09-09T08:28:36;9.23;;;3.63;;
26702;SDS011;14316;51.074;3.704;2022-09-09T08:31:15;8.43;;;3.00;;
26702;SDS011;14316;51.074;3.704;2022-09-09T08:33:43;11.55;;;3.22;;
26702;SDS011;14316;51.074;3.704;2022-09-09T08:36:12;16.88;;;2.97;;
26702;SDS011;14316;51.074;3.704;2022-09-09T08:38:40;11.18;;;3.05;;
26702;SDS011;14316;51.074;3.704;2022-09-09T08:41:17;8.23;;;2.90;;
26702;SDS011;14316;51.074;3.704;2022-09-09T08:44:39;8.02;;;2.67;;
26702;SDS011;14316;51.074;3.704;2022-09-09T08:47:39;8.65;;;3.28;;
26702;SDS011;14316;51.074;3.704;2022-09-09T08:50:32;5.50;;;2.40;;
26702;SDS011;14316;51.074;3.704;2022-09-09T08:53:04;8.77;;;2.53;;
26702;SDS011;14316;51.074;3.704;2022-09-09T08:55:47;6.72;;;2.55;;
26702;SDS011;14316;51.074;3.704;2022-09-09T08:58:19;7.30;;;2.80;;
26702;SDS011;14316;51.074;3.704;2022-09-09T09:09:16;4.65;;;2.17;;
26702;SDS011;14316;51.074;3.704;2022-09-09T09:11:54;6.63;;;2.83;;
26702;SDS011;14316;51.074;3.704;2022-09-09T09:14:26;8.65;;;2.70;;
26702;SDS011;14316;51.074;3.704;2022-09-09T09:17:03;8.10;;;3.28;;
26702;SDS011;14316;51.074;3.704;2022-09-09T09:19:40;8.02;;;2.70;;
26702;SDS011;14316;51.074;3.704;2022-09-09T09:24:53;6.35;;;2.55;;
26702;SDS011;14316;51.074;3.704;2022-09-09T09:27:34;9.77;;;2.55;;
26702;SDS011;14316;51.074;3.704;2022-09-09T09:33:03;6.65;;;2.60;;
26702;SDS011;14316;51.074;3.704;2022-09-09T09:35:30;6.30;;;2.67;;
26702;SDS011;14316;51.074;3.704;2022-09-09T09:37:56;8.95;;;2.58;;
26702;SDS011;14316;51.074;3.704;2022-09-09T09:40:22;5.15;;;2.47;;
26702;SDS011;14316;51.074;3.704;2022-09-09T09:42:49;5.68;;;2.47;;
26702;SDS011;14316;51.074;3.704;2022-09-09T09:48:00;6.97;;;2.70;;
26702;SDS011;14316;51.074;3.704;2022-09-09T09:50:30;7.97;;;2.70;;
26702;SDS011;14316;51.074;3.704;2022-09-09T09:53:01;9.05;;;2.35;;
26702;SDS011;14316;51.074;3.704;2022-09-09T09:55:30;11.20;;;2.38;;
26702;SDS011;14316;51.074;3.704;2022-09-09T09:58:05;5.32;;;2.47;;
26702;SDS011;14316;51.074;3.704;2022-09-09T10:00:32;5.30;;;2.25;;
26702;SDS011;14316;51.074;3.704;2022-09-09T10:03:00;9.85;;;2.58;;
26702;SDS011;14316;51.074;3.704;2022-09-09T10:05:27;5.03;;;1.80;;
26702;SDS011;14316;51.074;3.704;2022-09-09T10:08:01;7.32;;;2.22;;
26702;SDS011;14316;51.074;3.704;2022-09-09T10:13:46;6.13;;;2.28;;
26702;SDS011;14316;51.074;3.704;2022-09-09T10:32:46;4.93;;;1.70;;
26702;SDS011;14316;51.074;3.704;2022-09-09T10:40:36;7.00;;;2.30;;
26702;SDS011;14316;51.074;3.704;2022-09-09T10:43:13;8.05;;;1.98;;
26702;SDS011;14316;51.074;3.704;2022-09-09T10:46:07;4.93;;;1.60;;
26702;SDS011;14316;51.074;3.704;2022-09-09T10:53:45;3.33;;;2.00;;
26702;SDS011;14316;51.074;3.704;2022-09-09T10:56:17;3.67;;;1.80;;
26702;SDS011;14316;51.074;3.704;2022-09-09T10:59:04;3.17;;;1.98;;
26702;SDS011;14316;51.074;3.704;2022-09-09T11:04:40;5.47;;;2.10;;
26702;SDS011;14316;51.074;3.704;2022-09-09T11:07:13;5.90;;;2.00;;
26702;SDS011;14316;51.074;3.704;2022-09-09T11:09:50;6.18;;;1.95;;
26702;SDS011;14316;51.074;3.704;2022-09-09T11:12:25;6.38;;;1.60;;
26702;SDS011;14316;51.074;3.704;2022-09-09T11:14:59;4.60;;;1.50;;
26702;SDS011;14316;51.074;3.704;2022-09-09T11:17:42;2.72;;;1.52;;
26702;SDS011;14316;51.074;3.704;2022-09-09T11:20:12;1.77;;;1.00;;
26702;SDS011;14316;51.074;3.704;2022-09-09T11:23:05;5.22;;;1.85;;
26702;SDS011;14316;51.074;3.704;2022-09-09T11:25:32;3.90;;;1.40;;
26702;SDS011;14316;51.074;3.704;2022-09-09T11:28:22;4.85;;;1.60;;
26702;SDS011;14316;51.074;3.704;2022-09-09T11:41:53;5.65;;;1.40;;
26702;SDS011;14316;51.074;3.704;2022-09-09T11:44:30;2.83;;;1.60;;
26702;SDS011;14316;51.074;3.704;2022-09-09T11:46:56;2.40;;;1.27;;
26702;SDS011;14316;51.074;3.704;2022-09-09T11:49:29;4.22;;;1.48;;
26702;SDS011;14316;51.074;3.704;2022-09-09T11:52:25;2.53;;;1.33;;
26702;SDS011;14316;51.074;3.704;2022-09-09T11:55:11;2.83;;;1.50;;
26702;SDS011;14316;51.074;3.704;2022-09-09T11:58:01;5.65;;;1.27;;
26702;SDS011;14316;51.074;3.704;2022-09-09T12:00:40;3.35;;;1.15;;
26702;SDS011;14316;51.074;3.704;2022-09-09T12:06:18;1.90;;;1.20;;
26702;SDS011;14316;51.074;3.704;2022-09-09T12:09:05;5.15;;;1.55;;
26702;SDS011;14316;51.074;3.704;2022-09-09T12:11:49;3.13;;;1.40;;
26702;SDS011;14316;51.074;3.704;2022-09-09T12:14:19;2.65;;;1.17;;
26702;SDS011;14316;51.074;3.704;2022-09-09T12:16:46;3.55;;;1.40;;
26702;SDS011;14316;51.074;3.704;2022-09-09T12:19:21;3.05;;;1.27;;
26702;SDS011;14316;51.074;3.704;2022-09-09T12:27:36;4.50;;;1.40;;
26702;SDS011;14316;51.074;3.704;2022-09-09T12:30:11;6.22;;;1.80;;
26702;SDS011;14316;51.074;3.704;2022-09-09T12:32:40;5.68;;;1.45;;
26702;SDS011;14316;51.074;3.704;2022-09-09T12:35:13;3.22;;;1.50;;
26702;SDS011;14316;51.074;3.704;2022-09-09T12:37:50;3.50;;;1.25;;
26702;SDS011;14316;51.074;3.704;2022-09-09T12:40:23;4.00;;;1.52;;
26702;SDS011;14316;51.074;3.704;2022-09-09T12:42:54;3.67;;;1.50;;
26702;SDS011;14316;51.074;3.704;2022-09-09T12:45:26;2.40;;;1.50;;
26702;SDS011;14316;51.074;3.704;2022-09-09T12:48:00;2.78;;;1.45;;
26702;SDS011;14316;51.074;3.704;2022-09-09T12:50:32;2.45;;;1.55;;
26702;SDS011;14316;51.074;3.704;2022-09-09T12:53:10;1.77;;;1.03;;
26702;SDS011;14316;51.074;3.704;2022-09-09T12:55:49;2.92;;;1.50;;
26702;SDS011;14316;51.074;3.704;2022-09-09T12:58:25;5.18;;;1.73;;
26702;SDS011;14316;51.074;3.704;2022-09-09T13:00:54;4.07;;;1.60;;
26702;SDS011;14316;51.074;3.704;2022-09-09T13:03:25;4.03;;;1.85;;
26702;SDS011;14316;51.074;3.704;2022-09-09T13:05:53;3.38;;;1.58;;
26702;SDS011;14316;51.074;3.704;2022-09-09T13:08:24;4.53;;;1.88;;
26702;SDS011;14316;51.074;3.704;2022-09-09T13:13:20;4.85;;;1.90;;
26702;SDS011;14316;51.074;3.704;2022-09-09T13:16:20;5.53;;;1.75;;
26702;SDS011;14316;51.074;3.704;2022-09-09T13:18:50;7.07;;;2.17;;
26702;SDS011;14316;51.074;3.704;2022-09-09T13:21:17;4.40;;;2.35;;
26702;SDS011;14316;51.074;3.704;2022-09-09T13:23:47;5.53;;;2.03;;
26702;SDS011;14316;51.074;3.704;2022-09-09T13:26:25;4.63;;;2.63;;
26702;SDS011;14316;51.074;3.704;2022-09-09T13:28:55;5.47;;;2.30;;
26702;SDS011;14316;51.074;3.704;2022-09-09T13:31:34;4.22;;;1.80;;
26702;SDS011;14316;51.074;3.704;2022-09-09T13:34:22;4.13;;;1.77;;
26702;SDS011;14316;51.074;3.704;2022-09-09T13:36:54;5.50;;;2.00;;
26702;SDS011;14316;51.074;3.704;2022-09-09T13:39:24;3.40;;;1.40;;
26702;SDS011;14316;51.074;3.704;2022-09-09T13:41:50;3.75;;;1.42;;
26702;SDS011;14316;51.074;3.704;2022-09-09T13:44:22;4.05;;;1.25;;
26702;SDS011;14316;51.074;3.704;2022-09-09T13:47:04;2.40;;;1.52;;
26702;SDS011;14316;51.074;3.704;2022-09-09T13:49:32;4.30;;;1.90;;
26702;SDS011;14316;51.074;3.704;2022-09-09T13:52:11;8.70;;;1.35;;
26702;SDS011;14316;51.074;3.704;2022-09-09T13:54:42;3.45;;;1.50;;
26702;SDS011;14316;51.074;3.704;2022-09-09T13:57:15;3.20;;;1.50;;
26702;SDS011;14316;51.074;3.704;2022-09-09T13:59:44;3.08;;;1.35;;
26702;SDS011;14316;51.074;3.704;2022-09-09T14:02:14;3.67;;;1.60;;
26702;SDS011;14316;51.074;3.704;2022-09-09T14:04:41;2.25;;;1.30;;
26702;SDS011;14316;51.074;3.704;2022-09-09T14:07:12;3.70;;;1.60;;
26702;SDS011;14316;51.074;3.704;2022-09-09T14:09:40;4.88;;;1.58;;
26702;SDS011;14316;51.074;3.704;2022-09-09T14:12:12;2.08;;;1.35;;
26702;SDS011;14316;51.074;3.704;2022-09-09T14:14:40;2.35;;;1.33;;
26702;SDS011;14316;51.074;3.704;2022-09-09T14:17:07;2.58;;;1.33;;
26702;SDS011;14316;51.074;3.704;2022-09-09T14:19:33;2.42;;;1.23;;
26702;SDS011;14316;51.074;3.704;2022-09-09T14:21:59;5.78;;;1.65;;
26702;SDS011;14316;51.074;3.704;2022-09-09T14:24:24;2.55;;;1.60;;
26702;SDS011;14316;51.074;3.704;2022-09-09T14:26:50;2.95;;;1.23;;
26702;SDS011;14316;51.074;3.704;2022-09-09T14:29:16;4.65;;;1.30;;
26702;SDS011;14316;51.074;3.704;2022-09-09T14:31:45;2.85;;;1.40;;
26702;SDS011;14316;51.074;3.704;2022-09-09T14:34:11;4.38;;;1.10;;
26702;SDS011;14316;51.074;3.704;2022-09-09T14:36:37;5.32;;;1.30;;
26702;SDS011;14316;51.074;3.704;2022-09-09T14:39:03;3.53;;;1.45;;
26702;SDS011;14316;51.074;3.704;2022-09-09T14:41:29;2.60;;;1.27;;
26702;SDS011;14316;51.074;3.704;2022-09-09T14:43:56;4.05;;;1.50;;
26702;SDS011;14316;51.074;3.704;2022-09-09T14:46:30;2.97;;;1.27;;
26702;SDS011;14316;51.074;3.704;2022-09-09T14:48:57;7.20;;;2.28;;
26702;SDS011;14316;51.074;3.704;2022-09-09T14:51:24;5.25;;;1.60;;
26702;SDS011;14316;51.074;3.704;2022-09-09T14:53:52;2.22;;;1.40;;
26702;SDS011;14316;51.074;3.704;2022-09-09T14:56:23;3.75;;;1.95;;
26702;SDS011;14316;51.074;3.704;2022-09-09T14:58:52;3.55;;;2.00;;
26702;SDS011;14316;51.074;3.704;2022-09-09T15:01:20;4.93;;;2.10;;
26702;SDS011;14316;51.074;3.704;2022-09-09T15:03:51;4.50;;;2.83;;
26702;SDS011;14316;51.074;3.704;2022-09-09T15:06:29;4.53;;;2.40;;
26702;SDS011;14316;51.074;3.704;2022-09-09T15:08:57;4.38;;;2.33;;
26702;SDS011;14316;51.074;3.704;2022-09-09T15:11:25;4.43;;;2.20;;
26702;SDS011;14316;51.074;3.704;2022-09-09T15:13:52;3.00;;;1.95;;
26702;SDS011;14316;51.074;3.704;2022-09-09T15:16:19;4.50;;;2.40;;
26702;SDS011;14316;51.074;3.704;2022-09-09T15:18:49;8.35;;;2.80;;
26702;SDS011;14316;51.074;3.704;2022-09-09T15:21:17;6.28;;;2.78;;
26702;SDS011;14316;51.074;3.704;2022-09-09T15:23:44;6.03;;;2.30;;
26702;SDS011;14316;51.074;3.704;2022-09-09T15:26:12;5.55;;;2.90;;
26702;SDS011;14316;51.074;3.704;2022-09-09T15:28:39;5.53;;;2.92;;
26702;SDS011;14316;51.074;3.704;2022-09-09T15:31:19;4.30;;;2.75;;
26702;SDS011;14316;51.074;3.704;2022-09-09T15:33:54;5.57;;;3.03;;
26702;SDS011;14316;51.074;3.704;2022-09-09T15:36:31;5.28;;;2.90;;
26702;SDS011;14316;51.074;3.704;2022-09-09T15:39:00;4.38;;;2.50;;
26702;SDS011;14316;51.074;3.704;2022-09-09T15:41:28;5.25;;;2.80;;
26702;SDS011;14316;51.074;3.704;2022-09-09T15:43:58;4.07;;;2.92;;
26702;SDS011;14316;51.074;3.704;2022-09-09T15:49:09;5.22;;;2.70;;
26702;SDS011;14316;51.074;3.704;2022-09-09T15:51:41;6.32;;;2.80;;
26702;SDS011;14316;51.074;3.704;2022-09-09T15:54:08;8.63;;;3.20;;
26702;SDS011;14316;51.074;3.704;2022-09-09T15:56:38;6.70;;;3.20;;
26702;SDS011;14316;51.074;3.704;2022-09-09T15:59:04;6.00;;;2.95;;
26702;SDS011;14316;51.074;3.704;2022-09-09T16:01:31;5.70;;;2.75;;
26702;SDS011;14316;51.074;3.704;2022-09-09T16:03:58;6.15;;;3.13;;
26702;SDS011;14316;51.074;3.704;2022-09-09T16:06:25;5.32;;;2.45;;
26702;SDS011;14316;51.074;3.704;2022-09-09T16:08:53;5.53;;;2.60;;
26702;SDS011;14316;51.074;3.704;2022-09-09T16:11:20;4.70;;;2.10;;
26702;SDS011;14316;51.074;3.704;2022-09-09T16:13:47;5.60;;;2.03;;
26702;SDS011;14316;51.074;3.704;2022-09-09T16:16:14;4.55;;;2.22;;
26702;SDS011;14316;51.074;3.704;2022-09-09T16:18:43;4.75;;;1.90;;
26702;SDS011;14316;51.074;3.704;2022-09-09T16:21:14;3.92;;;1.80;;
26702;SDS011;14316;51.074;3.704;2022-09-09T16:23:42;5.00;;;2.00;;
26702;SDS011;14316;51.074;3.704;2022-09-09T16:26:13;4.60;;;1.70;;
26702;SDS011;14316;51.074;3.704;2022-09-09T16:28:40;2.40;;;1.83;;
26702;SDS011;14316;51.074;3.704;2022-09-09T16:31:07;4.20;;;2.28;;
26702;SDS011;14316;51.074;3.704;2022-09-09T16:33:35;5.25;;;2.30;;
26702;SDS011;14316;51.074;3.704;2022-09-09T16:36:08;3.13;;;1.92;;
26702;SDS011;14316;51.074;3.704;2022-09-09T16:38:37;5.80;;;1.95;;
26702;SDS011;14316;51.074;3.704;2022-09-09T16:41:03;5.70;;;2.33;;
26702;SDS011;14316;51.074;3.704;2022-09-09T16:43:30;4.38;;;2.20;;
26702;SDS011;14316;51.074;3.704;2022-09-09T16:46:11;4.72;;;1.90;;
26702;SDS011;14316;51.074;3.704;2022-09-09T16:48:37;2.72;;;2.08;;
26702;SDS011;14316;51.074;3.704;2022-09-09T16:51:08;5.88;;;2.60;;
26702;SDS011;14316;51.074;3.704;2022-09-09T16:53:37;5.75;;;2.33;;
26702;SDS011;14316;51.074;3.704;2022-09-09T16:56:13;6.30;;;3.03;;
26702;SDS011;14316;51.074;3.704;2022-09-09T16:58:48;7.07;;;3.05;;